Time;durP1;ratioP1;P1;durP2;ratioP2;P2;SDS_P1;SDS_P2;PMS_P1;PMS_P2;Temp;Humidity;BMP_temperature;BMP_pressure;BME280_temperature;BME280_humidity;BME280_pressure;Samples;Min_cycle;Max_cycle;Signal;HPM_P1;HPM_P2
2022/07/20 00:01:12;;;;;;;6.63;3.15;;;24.80;87.20;;;;;;7402177;19;20018;-90
2022/07/20 00:03:48;;;;;;;7.80;3.10;;;24.80;87.00;;;;;;7401282;19;20018;-90
2022/07/20 00:06:14;;;;;;;5.53;3.13;;;24.80;86.60;;;;;;7401392;19;20394;-90
2022/07/20 00:11:24;;;;;;;8.20;3.15;;;24.70;86.80;;;;;;7400371;19;20042;-91
2022/07/20 00:13:53;;;;;;;5.68;3.13;;;24.60;87.40;;;;;;7397962;19;20011;-91
2022/07/20 00:16:21;;;;;;;4.38;3.17;;;24.60;86.90;;;;;;7400555;19;20641;-90
2022/07/20 00:18:47;;;;;;;8.50;3.38;;;24.60;87.60;;;;;;7402318;19;20116;-91
2022/07/20 00:21:14;;;;;;;6.90;2.97;;;24.40;87.60;;;;;;7414207;19;20014;-90
2022/07/20 00:23:40;;;;;;;6.45;3.10;;;24.40;87.90;;;;;;7409062;19;20021;-91
2022/07/20 00:26:09;;;;;;;5.13;3.10;;;24.40;87.70;;;;;;7400057;19;20018;-90
2022/07/20 00:28:35;;;;;;;7.50;3.25;;;24.30;88.50;;;;;;7400230;19;20368;-90
2022/07/20 00:31:01;;;;;;;6.07;3.15;;;24.30;87.90;;;;;;7398861;19;20011;-89
2022/07/20 00:33:27;;;;;;;5.47;2.72;;;24.20;89.10;;;;;;7399896;19;20479;-89
2022/07/20 00:35:53;;;;;;;6.38;3.30;;;24.20;88.90;;;;;;7400227;19;20014;-90
2022/07/20 00:38:19;;;;;;;5.28;2.83;;;24.20;88.20;;;;;;7397094;19;20018;-90
2022/07/20 00:40:45;;;;;;;5.78;3.25;;;24.10;89.50;;;;;;7400019;19;20482;-91
2022/07/20 00:43:11;;;;;;;6.88;3.17;;;24.10;88.70;;;;;;7398878;19;20017;-91
2022/07/20 00:45:36;;;;;;;6.20;3.03;;;24.00;87.80;;;;;;7400459;19;20021;-90
2022/07/20 00:48:02;;;;;;;7.75;3.25;;;24.00;88.70;;;;;;7399993;19;20019;-90
2022/07/20 00:50:29;;;;;;;5.28;2.80;;;24.00;88.30;;;;;;7399438;19;20014;-90
2022/07/20 00:52:55;;;;;;;7.03;3.22;;;23.90;90.00;;;;;;7398518;19;20060;-89
2022/07/20 00:55:21;;;;;;;9.05;3.35;;;23.80;89.20;;;;;;7401037;19;20447;-89
2022/07/20 00:57:47;;;;;;;6.07;3.30;;;23.80;89.80;;;;;;7399171;19;20014;-89
2022/07/20 01:00:14;;;;;;;7.45;3.13;;;23.70;89.80;;;;;;7397960;19;20502;-89
2022/07/20 01:02:40;;;;;;;6.47;3.00;;;23.60;89.40;;;;;;7399236;19;20022;-89
2022/07/20 01:05:14;;;;;;;6.05;2.80;;;23.50;90.40;;;;;;7398779;19;20384;-89
2022/07/20 01:07:41;;;;;;;6.72;3.47;;;23.50;90.20;;;;;;7397196;19;20510;-88
2022/07/20 01:10:08;;;;;;;7.22;3.10;;;23.40;90.60;;;;;;7397240;19;20756;-89
2022/07/20 01:12:38;;;;;;;6.65;3.17;;;23.40;90.40;;;;;;7397171;19;20045;-89
2022/07/20 01:15:07;;;;;;;5.85;3.10;;;23.30;90.50;;;;;;7396368;19;20392;-90
2022/07/20 01:17:33;;;;;;;7.88;3.47;;;23.30;90.10;;;;;;7395889;19;20022;-90
2022/07/20 01:19:59;;;;;;;4.93;2.78;;;23.30;90.80;;;;;;7398320;19;20014;-89
2022/07/20 01:22:26;;;;;;;7.32;3.17;;;23.20;90.00;;;;;;7397239;19;20038;-89
2022/07/20 01:24:52;;;;;;;6.10;3.20;;;23.30;90.10;;;;;;7399200;19;20014;-89
2022/07/20 01:27:17;;;;;;;6.15;3.08;;;23.20;90.20;;;;;;7400235;19;20019;-89
2022/07/20 01:29:43;;;;;;;6.15;3.25;;;23.20;90.30;;;;;;7398191;19;20022;-90
2022/07/20 01:32:10;;;;;;;8.15;3.55;;;23.20;89.90;;;;;;7400713;19;20074;-90
2022/07/20 01:34:36;;;;;;;5.32;3.00;;;23.20;89.30;;;;;;7399773;19;20014;-90
2022/07/20 01:37:02;;;;;;;6.95;3.35;;;23.30;90.00;;;;;;7397013;19;20015;-90
2022/07/20 01:39:28;;;;;;;6.70;3.22;;;23.20;90.50;;;;;;7397287;19;20065;-89
2022/07/20 01:41:54;;;;;;;7.97;3.17;;;23.20;89.20;;;;;;7398125;19;20479;-89
2022/07/20 01:44:24;;;;;;;4.53;2.90;;;23.20;89.90;;;;;;7397658;19;20019;-89
2022/07/20 01:46:51;;;;;;;6.72;3.30;;;23.10;89.60;;;;;;7393510;19;20025;-89
2022/07/20 01:49:17;;;;;;;6.40;3.20;;;23.10;90.30;;;;;;7397190;19;20031;-89
2022/07/20 01:51:43;;;;;;;8.07;3.25;;;23.00;90.20;;;;;;7394562;19;20018;-89
2022/07/20 01:54:10;;;;;;;6.15;3.13;;;23.00;90.50;;;;;;7398502;19;20360;-89
2022/07/20 01:56:39;;;;;;;6.68;3.17;;;22.90;90.20;;;;;;7397774;19;20018;-90
2022/07/20 01:59:05;;;;;;;6.68;3.05;;;22.90;89.90;;;;;;7396915;19;20018;-89
2022/07/20 02:01:31;;;;;;;7.10;3.30;;;23.00;89.60;;;;;;7397460;19;20375;-89
2022/07/20 02:04:00;;;;;;;6.15;3.28;;;23.00;90.00;;;;;;7404902;19;20041;-87
2022/07/20 02:06:26;;;;;;;9.20;3.30;;;23.00;90.50;;;;;;7408598;19;20022;-90
2022/07/20 02:08:52;;;;;;;7.20;3.20;;;22.90;90.30;;;;;;7394482;19;20077;-89
2022/07/20 02:11:18;;;;;;;7.97;3.33;;;22.90;90.30;;;;;;7395734;19;20010;-90
2022/07/20 02:13:45;;;;;;;5.07;3.22;;;22.80;91.50;;;;;;7394339;19;20011;-90
2022/07/20 02:16:16;;;;;;;5.40;3.25;;;22.70;91.70;;;;;;7397795;19;20074;-90
2022/07/20 02:18:46;;;;;;;5.50;3.75;;;22.60;91.80;;;;;;7396512;19;20422;-90
2022/07/20 02:21:14;;;;;;;6.10;3.72;;;22.50;92.00;;;;;;7393687;19;20010;-90
2022/07/20 02:23:41;;;;;;;7.47;3.90;;;22.40;92.30;;;;;;7395098;19;20010;-90
2022/07/20 02:26:07;;;;;;;6.30;3.53;;;22.30;92.20;;;;;;7394294;19;20482;-89
2022/07/20 02:28:32;;;;;;;4.63;3.33;;;22.20;92.40;;;;;;7397189;19;20003;-90
2022/07/20 02:30:58;;;;;;;6.80;3.70;;;22.10;92.70;;;;;;7392950;19;20010;-90
2022/07/20 02:33:24;;;;;;;5.30;4.07;;;22.00;93.10;;;;;;7396375;19;20015;-90
2022/07/20 02:35:50;;;;;;;8.15;4.15;;;21.90;93.00;;;;;;7396853;19;20014;-90
2022/07/20 02:38:16;;;;;;;6.30;4.38;;;21.90;92.90;;;;;;7396776;19;20014;-90
2022/07/20 02:40:42;;;;;;;5.80;3.97;;;21.90;92.80;;;;;;7394806;19;20031;-90
2022/07/20 02:43:08;;;;;;;4.68;3.53;;;21.80;92.80;;;;;;7394732;19;20491;-90
2022/07/20 02:45:34;;;;;;;5.95;4.10;;;21.80;93.20;;;;;;7393221;19;20018;-90
2022/07/20 02:48:03;;;;;;;5.47;3.80;;;21.70;93.00;;;;;;7396317;19;20474;-89
2022/07/20 02:50:36;;;;;;;5.43;3.40;;;21.80;92.50;;;;;;7394289;19;20022;-90
2022/07/20 02:53:03;;;;;;;5.78;3.83;;;21.80;91.90;;;;;;7394039;19;20360;-90
2022/07/20 02:55:29;;;;;;;6.68;3.55;;;21.80;92.00;;;;;;7395017;19;20018;-89
2022/07/20 02:57:55;;;;;;;8.50;3.65;;;21.90;91.90;;;;;;7397322;19;20011;-89
2022/07/20 03:00:21;;;;;;;8.63;3.50;;;21.90;91.70;;;;;;7394149;19;20470;-89
2022/07/20 03:02:47;;;;;;;6.13;3.72;;;21.90;92.10;;;;;;7395098;19;20011;-89
2022/07/20 03:05:19;;;;;;;7.07;5.20;;;21.90;92.50;;;;;;7396718;19;20391;-89
2022/07/20 03:07:45;;;;;;;10.82;5.97;;;21.90;92.90;;;;;;7390604;19;20054;-89
2022/07/20 03:10:12;;;;;;;11.90;3.83;;;21.80;93.00;;;;;;7393706;19;20027;-89
2022/07/20 03:12:38;;;;;;;7.38;3.78;;;21.80;92.20;;;;;;7393537;19;20032;-87
2022/07/20 03:15:06;;;;;;;8.52;3.95;;;21.80;91.90;;;;;;7394441;19;20362;-90
2022/07/20 03:17:32;;;;;;;6.38;3.80;;;21.80;93.10;;;;;;7395835;19;20021;-89
2022/07/20 03:19:59;;;;;;;7.60;3.95;;;21.70;93.30;;;;;;7393545;19;20015;-87
2022/07/20 03:22:24;;;;;;;8.30;3.78;;;21.60;92.40;;;;;;7393114;19;20019;-89
2022/07/20 03:24:51;;;;;;;8.20;3.80;;;21.60;93.00;;;;;;7393735;19;20010;-89
2022/07/20 03:27:17;;;;;;;6.43;3.80;;;21.60;92.70;;;;;;7392761;19;20404;-89
2022/07/20 03:29:44;;;;;;;6.97;3.80;;;21.60;93.40;;;;;;7394067;19;20019;-89
2022/07/20 03:32:10;;;;;;;5.38;3.90;;;21.50;94.00;;;;;;7392317;19;20507;-89
2022/07/20 03:34:35;;;;;;;6.90;3.92;;;21.40;93.80;;;;;;7399158;19;20066;-89
2022/07/20 03:37:01;;;;;;;7.63;3.88;;;21.30;94.00;;;;;;7398564;19;20019;-89
2022/07/20 03:39:27;;;;;;;6.30;3.60;;;21.30;93.40;;;;;;7401798;19;20018;-89
2022/07/20 03:41:53;;;;;;;5.68;3.45;;;21.30;93.00;;;;;;7400178;19;20018;-90
2022/07/20 03:44:19;;;;;;;7.22;4.18;;;21.30;93.50;;;;;;7251120;19;20019;-89
2022/07/20 03:46:45;;;;;;;6.28;3.88;;;21.30;94.00;;;;;;7255597;19;20031;-89
2022/07/20 03:49:11;;;;;;;7.32;4.07;;;21.30;93.50;;;;;;7408106;19;20014;-88
2022/07/20 03:51:38;;;;;;;4.82;3.70;;;21.30;93.60;;;;;;7409404;19;20018;-87
2022/07/20 03:54:05;;;;;;;6.45;4.30;;;21.30;93.00;;;;;;7402400;19;20021;-89
2022/07/20 03:56:31;;;;;;;5.38;3.80;;;21.40;93.10;;;;;;7400553;19;20360;-89
2022/07/20 03:58:57;;;;;;;5.93;3.85;;;21.40;92.60;;;;;;7402320;19;20029;-89
2022/07/20 04:01:22;;;;;;;5.47;4.55;;;21.40;93.20;;;;;;7400906;19;20357;-90
2022/07/20 04:03:48;;;;;;;5.72;4.97;;;21.40;93.80;;;;;;7402196;19;20014;-89
2022/07/20 04:06:14;;;;;;;7.20;4.00;;;21.40;94.50;;;;;;7401298;19;20014;-89
2022/07/20 04:08:40;;;;;;;7.40;4.30;;;21.30;94.00;;;;;;7402209;19;20015;-89
2022/07/20 04:11:06;;;;;;;9.93;5.28;;;21.30;93.50;;;;;;7400935;19;20369;-89
2022/07/20 04:13:32;;;;;;;7.72;5.78;;;21.30;94.50;;;;;;7396435;19;20015;-90
2022/07/20 04:15:57;;;;;;;6.60;6.00;;;21.20;95.00;;;;;;7399276;19;20029;-89
2022/07/20 04:18:23;;;;;;;6.95;5.93;;;21.20;95.20;;;;;;7400010;19;20032;-89
2022/07/20 04:20:49;;;;;;;6.15;4.88;;;21.20;95.10;;;;;;7402104;19;20085;-89
2022/07/20 04:23:15;;;;;;;7.65;6.07;;;21.00;95.40;;;;;;7400010;19;20018;-90
2022/07/20 04:25:42;;;;;;;6.25;4.50;;;21.00;94.70;;;;;;7399442;19;20382;-89
2022/07/20 04:28:08;;;;;;;9.30;5.30;;;21.00;95.60;;;;;;7400783;19;20014;-87
2022/07/20 04:30:35;;;;;;;6.85;4.43;;;20.90;95.60;;;;;;7398530;19;20018;-89
2022/07/20 04:33:01;;;;;;;5.63;4.93;;;21.00;94.20;;;;;;7396930;19;20039;-88
2022/07/20 04:35:27;;;;;;;5.07;4.40;;;21.00;94.30;;;;;;7398676;19;20018;-90
2022/07/20 04:37:53;;;;;;;8.65;6.40;;;21.00;95.90;;;;;;7398087;19;20471;-90
2022/07/20 04:40:19;;;;;;;9.73;6.53;;;21.00;94.80;;;;;;7400328;19;20031;-89
2022/07/20 04:42:44;;;;;;;6.90;4.65;;;21.10;94.60;;;;;;7398806;19;20463;-90
2022/07/20 04:45:11;;;;;;;8.00;4.78;;;21.10;95.60;;;;;;7395887;19;20043;-89
2022/07/20 04:47:37;;;;;;;7.72;5.57;;;21.20;95.30;;;;;;7399573;19;20018;-88
2022/07/20 04:50:03;;;;;;;7.57;5.15;;;21.20;95.00;;;;;;7401043;19;20019;-90
2022/07/20 04:52:29;;;;;;;5.45;4.13;;;21.30;95.30;;;;;;7397608;19;20467;-89
2022/07/20 04:54:55;;;;;;;6.78;4.13;;;21.40;95.10;;;;;;7399192;19;20014;-89
2022/07/20 04:57:21;;;;;;;8.23;5.30;;;21.40;95.30;;;;;;7401404;19;20015;-90
2022/07/20 04:59:46;;;;;;;9.15;5.75;;;21.50;94.00;;;;;;7396644;19;20018;-88
2022/07/20 05:02:12;;;;;;;9.35;5.90;;;21.60;93.80;;;;;;7398776;19;20014;-91
2022/07/20 05:04:38;;;;;;;8.43;6.00;;;21.60;94.10;;;;;;7397744;19;20491;-87
2022/07/20 05:07:04;;;;;;;6.47;5.13;;;21.70;93.70;;;;;;7398615;19;20022;-88
2022/07/20 05:09:30;;;;;;;6.90;4.95;;;21.70;93.60;;;;;;7399196;19;20021;-89
2022/07/20 05:11:56;;;;;;;6.93;5.65;;;21.90;93.70;;;;;;7398600;19;20106;-88
2022/07/20 05:14:22;;;;;;;8.88;5.32;;;22.00;93.60;;;;;;7394056;19;20022;-89
2022/07/20 05:16:48;;;;;;;6.93;6.22;;;22.00;93.70;;;;;;7396677;19;20097;-88
2022/07/20 05:19:13;;;;;;;7.60;6.70;;;22.10;93.90;;;;;;7394558;19;20007;-90
2022/07/20 05:21:39;;;;;;;8.35;6.63;;;22.10;93.80;;;;;;7399393;19;20035;-89
2022/07/20 05:24:06;;;;;;;7.25;6.03;;;22.20;94.10;;;;;;7399904;19;20480;-88
2022/07/20 05:26:32;;;;;;;4.80;4.30;;;22.20;94.10;;;;;;7399631;19;20082;-90
2022/07/20 05:28:58;;;;;;;7.47;4.35;;;22.20;94.80;;;;;;7395623;19;20085;-88
2022/07/20 05:31:24;;;;;;;7.35;4.32;;;22.40;94.90;;;;;;7398213;19;20038;-89
2022/07/20 05:33:50;;;;;;;8.48;5.70;;;22.90;94.30;;;;;;7398471;19;20368;-88
2022/07/20 05:36:15;;;;;;;7.28;6.28;;;22.90;93.80;;;;;;7408935;19;20063;-89
2022/07/20 05:38:41;;;;;;;6.00;5.38;;;22.90;93.90;;;;;;7400311;19;20011;-87
2022/07/20 05:41:07;;;;;;;7.88;4.63;;;22.80;94.00;;;;;;7392477;19;20014;-82
2022/07/20 05:43:33;;;;;;;8.10;4.45;;;22.70;94.40;;;;;;7399458;19;20034;-84
2022/07/20 05:46:02;;;;;;;13.68;5.53;;;22.80;94.50;;;;;;7398165;19;20038;-83
2022/07/20 05:48:30;;;;;;;10.32;5.32;;;22.70;95.10;;;;;;7396968;19;20014;-93
2022/07/20 05:50:56;;;;;;;61.13;10.00;;;22.80;95.40;;;;;;7396117;19;20014;-90
2022/07/20 05:53:21;;;;;;;7.35;4.10;;;22.80;99.90;;;;;;7393912;19;20018;-90
2022/07/20 05:55:47;;;;;;;9.15;4.68;;;22.90;96.70;;;;;;7393827;19;20033;-87
2022/07/20 05:58:13;;;;;;;13.23;4.75;;;23.10;96.00;;;;;;7398122;19;20028;-86
2022/07/20 06:00:39;;;;;;;9.75;4.47;;;23.20;98.00;;;;;;7395050;19;20039;-88
2022/07/20 06:03:05;;;;;;;6.30;4.97;;;23.20;95.90;;;;;;7394167;19;20467;-85
2022/07/20 06:05:32;;;;;;;8.85;4.38;;;23.30;95.40;;;;;;7392098;19;20053;-87
2022/07/20 06:08:00;;;;;;;6.65;4.25;;;23.40;95.50;;;;;;7393439;19;20019;-87
2022/07/20 06:10:28;;;;;;;8.18;4.22;;;23.40;96.50;;;;;;7392095;19;20027;-86
2022/07/20 06:12:55;;;;;;;9.07;3.30;;;23.60;95.90;;;;;;7392609;19;20026;-89
2022/07/20 06:15:24;;;;;;;7.53;4.25;;;23.90;98.00;;;;;;7394396;19;20021;-86
2022/07/20 06:17:51;;;;;;;9.68;4.40;;;24.00;96.00;;;;;;7392214;19;20015;-86
2022/07/20 06:20:17;;;;;;;9.90;5.03;;;24.10;95.20;;;;;;7392421;19;20026;-89
2022/07/20 06:22:44;;;;;;;7.47;4.90;;;24.10;94.60;;;;;;7393345;19;20015;-93
2022/07/20 06:25:12;;;;;;;6.50;4.40;;;24.10;94.70;;;;;;7396507;19;20463;-93
2022/07/20 06:27:39;;;;;;;5.63;4.40;;;24.10;95.40;;;;;;7395664;19;20011;-93
2022/07/20 06:30:07;;;;;;;5.70;4.00;;;24.10;95.00;;;;;;7395442;19;20046;-94
2022/07/20 06:32:33;;;;;;;6.05;3.50;;;24.30;95.10;;;;;;7394351;19;20027;-92
2022/07/20 06:34:59;;;;;;;5.75;4.25;;;24.60;96.40;;;;;;7396063;19;20037;-94
2022/07/20 06:37:25;;;;;;;7.70;4.35;;;24.70;95.90;;;;;;7396371;19;20486;-93
2022/07/20 06:39:51;;;;;;;6.32;3.50;;;24.80;94.90;;;;;;7396690;19;20018;-93
2022/07/20 06:42:20;;;;;;;6.45;3.58;;;25.00;98.20;;;;;;7397604;19;20441;-93
2022/07/20 06:44:46;;;;;;;8.85;3.92;;;25.10;98.80;;;;;;7394935;19;20014;-93
2022/07/20 06:47:12;;;;;;;8.60;4.82;;;25.10;96.30;;;;;;7398390;19;20010;-92
2022/07/20 06:49:39;;;;;;;6.53;4.28;;;25.10;94.80;;;;;;7395058;19;20018;-93
2022/07/20 06:52:05;;;;;;;5.60;4.15;;;25.10;95.20;;;;;;7393809;19;20021;-92
2022/07/20 06:54:31;;;;;;;8.40;4.72;;;25.10;96.00;;;;;;7396150;19;20130;-92
2022/07/20 06:56:57;;;;;;;7.70;4.43;;;25.10;95.10;;;;;;7396773;19;20359;-92
2022/07/20 06:59:23;;;;;;;4.93;3.75;;;25.10;95.50;;;;;;7395817;19;20082;-91
2022/07/20 07:01:50;;;;;;;9.52;4.50;;;25.20;96.50;;;;;;7395534;19;20010;-92
2022/07/20 07:04:16;;;;;;;7.05;4.07;;;25.40;95.50;;;;;;7392296;19;20127;-93
2022/07/20 07:06:42;;;;;;;6.32;3.75;;;25.60;95.60;;;;;;7396001;19;20034;-92
2022/07/20 07:09:09;;;;;;;5.13;3.70;;;25.70;98.90;;;;;;7396694;19;20015;-93
2022/07/20 07:11:35;;;;;;;4.32;3.90;;;25.90;99.90;;;;;;7397017;19;20015;-91
2022/07/20 07:14:02;;;;;;;6.68;4.22;;;25.90;96.60;;;;;;7393267;19;20066;-92
2022/07/20 07:16:29;;;;;;;8.90;4.10;;;26.30;99.20;;;;;;7396583;19;20003;-92
2022/07/20 07:18:54;;;;;;;7.60;4.40;;;27.30;96.10;;;;;;7411148;19;20018;-91
2022/07/20 07:21:20;;;;;;;8.27;4.65;;;28.50;94.90;;;;;;7403535;19;20015;-93
2022/07/20 07:23:49;;;;;;;7.03;4.70;;;29.80;93.50;;;;;;7395119;19;20018;-93
2022/07/20 07:26:19;;;;;;;6.35;3.92;;;30.80;92.70;;;;;;7393971;19;20013;-94
2022/07/20 07:28:46;;;;;;;7.40;3.83;;;31.60;94.60;;;;;;7395275;19;20089;-91
2022/07/20 07:31:12;;;;;;;5.78;4.05;;;31.70;94.50;;;;;;7394873;19;20503;-91
2022/07/20 07:33:38;;;;;;;5.75;3.58;;;31.90;93.80;;;;;;7395974;19;20014;-91
2022/07/20 07:36:05;;;;;;;5.90;4.18;;;32.30;94.80;;;;;;7396722;19;20548;-93
2022/07/20 07:38:31;;;;;;;6.50;4.25;;;32.70;92.50;;;;;;7395490;19;20018;-92
2022/07/20 07:40:57;;;;;;;11.75;4.60;;;32.90;91.80;;;;;;7394026;19;20010;-92
2022/07/20 07:43:23;;;;;;;7.03;4.57;;;32.90;90.50;;;;;;7393160;19;20014;-93
2022/07/20 07:45:49;;;;;;;6.18;4.32;;;33.10;91.90;;;;;;7397279;19;20026;-91
2022/07/20 07:48:15;;;;;;;6.47;4.30;;;33.00;90.80;;;;;;7393695;19;20007;-92
2022/07/20 07:50:42;;;;;;;7.63;4.00;;;33.20;91.30;;;;;;7394006;19;20034;-93
2022/07/20 07:53:08;;;;;;;6.03;4.00;;;33.40;90.40;;;;;;7394484;19;20447;-94
2022/07/20 07:55:39;;;;;;;7.97;4.32;;;33.30;88.20;;;;;;7395630;19;20015;-96
2022/07/20 07:58:09;;;;;;;7.32;3.72;;;33.40;88.10;;;;;;7392804;19;20078;-92
2022/07/20 08:00:37;;;;;;;4.63;4.18;;;33.40;86.30;;;;;;7390211;19;20015;-92
2022/07/20 08:03:05;;;;;;;7.82;3.80;;;33.40;90.20;;;;;;7391684;19;20010;-93
2022/07/20 08:05:32;;;;;;;7.72;4.18;;;33.50;85.50;;;;;;7391665;19;20027;-93
2022/07/20 08:08:03;;;;;;;9.40;4.50;;;33.40;88.30;;;;;;7391564;19;20025;-93
2022/07/20 08:10:29;;;;;;;5.80;4.90;;;33.50;85.70;;;;;;7391633;19;20479;-96
2022/07/20 08:12:55;;;;;;;6.00;3.90;;;33.60;89.90;;;;;;7391289;19;20021;-94
2022/07/20 08:15:21;;;;;;;5.80;3.63;;;33.50;85.10;;;;;;7387245;19;20520;-94
2022/07/20 08:17:47;;;;;;;4.55;4.00;;;33.50;87.30;;;;;;7391796;19;20011;-94
2022/07/20 08:20:13;;;;;;;7.63;4.25;;;33.30;87.80;;;;;;7396723;19;20066;-93
2022/07/20 08:22:39;;;;;;;6.93;3.97;;;33.40;86.50;;;;;;7400387;19;20025;-92
2022/07/20 08:25:05;;;;;;;8.02;4.32;;;33.30;85.20;;;;;;7393672;19;20017;-93
2022/07/20 08:27:31;;;;;;;6.38;3.92;;;33.20;87.60;;;;;;7399244;19;20011;-90
2022/07/20 08:29:59;;;;;;;9.40;4.30;;;32.90;85.70;;;;;;7403649;19;20010;-92
2022/07/20 08:32:26;;;;;;;8.73;4.30;;;32.90;85.20;;;;;;7401878;19;20377;-90
2022/07/20 08:34:52;;;;;;;7.38;4.25;;;32.90;85.20;;;;;;7399763;19;20015;-91
2022/07/20 08:37:18;;;;;;;5.57;4.40;;;32.90;85.60;;;;;;7399420;19;21855;-89
2022/07/20 08:39:44;;;;;;;6.95;3.75;;;32.90;84.50;;;;;;7402697;19;20095;-90
2022/07/20 08:42:10;;;;;;;6.05;4.78;;;32.70;87.10;;;;;;7400900;19;20014;-93
2022/07/20 08:44:39;;;;;;;5.03;4.45;;;32.80;89.70;;;;;;7400053;19;20018;-90
2022/07/20 08:47:06;;;;;;;7.25;4.85;;;32.90;90.30;;;;;;7399027;19;20031;-94
2022/07/20 08:49:32;;;;;;;7.80;4.82;;;33.00;89.70;;;;;;7402110;19;20373;-92
2022/07/20 08:51:58;;;;;;;6.78;5.00;;;32.90;88.80;;;;;;7396977;19;20018;-92
2022/07/20 08:54:25;;;;;;;7.18;4.22;;;32.50;86.70;;;;;;7401979;19;20416;-91
2022/07/20 08:56:51;;;;;;;5.10;4.60;;;32.20;87.60;;;;;;7401144;19;20010;-93
2022/07/20 08:59:17;;;;;;;11.20;5.18;;;31.60;90.10;;;;;;7405536;19;20006;-88
2022/07/20 09:02:00;;;;;;;6.57;4.75;;;31.20;90.50;;;;;;7417126;19;20018;-91
2022/07/20 09:04:25;;;;;;;;;;;30.80;88.60;;;;;;7407260;19;20025;-92
2022/07/20 09:06:51;;;;;;;10.15;5.35;;;30.50;90.00;;;;;;7400168;19;19970;-92
2022/07/20 09:09:19;;;;;;;7.53;6.03;;;30.30;90.70;;;;;;7400950;19;20018;-93
2022/07/20 09:11:45;;;;;;;7.53;5.85;;;30.20;90.80;;;;;;7399996;19;20359;-91
2022/07/20 09:14:12;;;;;;;8.45;5.70;;;30.10;90.40;;;;;;7399220;19;20082;-90
2022/07/20 09:16:46;;;;;;;9.85;5.82;;;30.10;91.30;;;;;;7398757;19;20018;-91
2022/07/20 09:19:14;;;;;;;8.15;5.35;;;30.10;91.70;;;;;;7401279;19;20566;-90
2022/07/20 09:21:41;;;;;;;8.02;6.72;;;29.90;91.90;;;;;;7398871;19;20015;-91
2022/07/20 09:24:09;;;;;;;9.52;7.43;;;29.90;91.90;;;;;;7398683;19;20037;-92
2022/07/20 09:26:36;;;;;;;15.75;9.02;;;29.80;91.40;;;;;;7398277;19;20018;-90
2022/07/20 09:29:05;;;;;;;12.40;9.27;;;29.80;91.00;;;;;;7398616;19;20018;-92
2022/07/20 09:31:35;;;;;;;7.18;6.13;;;29.80;91.50;;;;;;7397299;19;20074;-90
2022/07/20 09:34:03;;;;;;;9.00;7.47;;;29.80;91.90;;;;;;7398308;19;20018;-90
2022/07/20 09:36:36;;;;;;;7.13;6.30;;;29.80;92.50;;;;;;7397615;19;20364;-90
2022/07/20 09:39:12;;;;;;;9.93;6.95;;;29.80;92.50;;;;;;7398883;19;20489;-91
2022/07/20 09:41:41;;;;;;;10.07;7.65;;;29.90;92.80;;;;;;7398351;19;20014;-90
2022/07/20 09:44:10;;;;;;;15.38;11.13;;;30.00;93.00;;;;;;7396007;19;20021;-89
2022/07/20 09:46:38;;;;;;;16.08;11.48;;;30.00;92.80;;;;;;7395177;19;20455;-90
2022/07/20 09:49:06;;;;;;;16.05;10.73;;;30.10;92.80;;;;;;7398194;19;20406;-91
2022/07/20 09:51:34;;;;;;;14.77;12.25;;;30.00;93.00;;;;;;7398009;19;20018;-93
2022/07/20 09:54:08;;;;;;;15.15;10.38;;;30.10;93.20;;;;;;7394006;19;20030;-89
2022/07/20 09:56:37;;;;;;;11.00;9.50;;;30.00;94.10;;;;;;7397852;19;20010;-91
2022/07/20 09:59:05;;;;;;;17.92;13.50;;;29.90;93.50;;;;;;7397768;19;20010;-92
2022/07/20 10:01:34;;;;;;;14.13;10.00;;;30.00;93.80;;;;;;7398323;19;20030;-94
2022/07/20 10:04:03;;;;;;;17.55;12.85;;;29.90;94.00;;;;;;7399535;19;20011;-89
2022/07/20 10:06:30;;;;;;;18.30;15.02;;;29.90;94.00;;;;;;7395444;19;20006;-92
2022/07/20 10:08:56;;;;;;;16.63;12.40;;;29.90;94.40;;;;;;7396812;19;20042;-91
2022/07/20 10:11:25;;;;;;;23.05;15.77;;;29.80;94.40;;;;;;7393176;19;20479;-88
2022/07/20 10:13:53;;;;;;;14.63;12.35;;;29.90;94.50;;;;;;7394603;19;20050;-89
2022/07/20 10:16:36;;;;;;;20.08;15.82;;;29.90;94.20;;;;;;7397298;19;20010;-90
2022/07/20 10:19:04;;;;;;;26.38;16.67;;;30.00;94.80;;;;;;7394202;19;20010;-89
2022/07/20 10:21:49;;;;;;;21.60;13.57;;;30.10;94.40;;;;;;7392380;19;20491;-93
2022/07/20 10:24:30;;;;;;;20.17;17.25;;;30.10;94.40;;;;;;7393426;19;20017;-89
2022/07/20 10:27:08;;;;;;;22.05;16.20;;;30.20;94.50;;;;;;7301272;19;20014;-89
2022/07/20 10:29:43;;;;;;;23.67;19.52;;;30.20;94.50;;;;;;7394158;19;20022;-94
2022/07/20 10:32:09;;;;;;;20.15;14.30;;;30.30;94.50;;;;;;7393598;19;20023;-89
2022/07/20 10:34:39;;;;;;;25.92;20.23;;;30.40;94.60;;;;;;7395551;19;20014;-88
2022/07/20 10:37:22;;;;;;;30.08;19.17;;;30.40;94.10;;;;;;7393467;19;20511;-90
2022/07/20 10:39:48;;;;;;;21.92;16.30;;;30.30;93.90;;;;;;7390379;19;20512;-88
2022/07/20 10:42:32;;;;;;;21.33;16.02;;;30.30;94.30;;;;;;7393689;19;20191;-87
2022/07/20 10:45:16;;;;;;;18.15;15.07;;;30.30;94.00;;;;;;7393422;19;20403;-87
2022/07/20 10:47:46;;;;;;;20.70;15.90;;;30.40;93.80;;;;;;7394814;19;20010;-87
2022/07/20 10:50:20;;;;;;;25.05;19.05;;;30.40;93.40;;;;;;7394324;19;20018;-92
2022/07/20 10:52:48;;;;;;;20.30;16.75;;;30.50;93.20;;;;;;7393182;19;20011;-91
2022/07/20 10:55:34;;;;;;;26.10;18.88;;;30.60;93.30;;;;;;7395908;19;20010;-91
2022/07/20 10:58:03;;;;;;;21.67;15.68;;;30.60;92.80;;;;;;7391028;19;20015;-86
2022/07/20 11:00:40;;;;;;;17.88;15.85;;;30.60;93.10;;;;;;7391085;19;20041;-86
2022/07/20 11:03:29;;;;;;;21.48;16.70;;;30.60;93.00;;;;;;7394673;19;20038;-88
2022/07/20 11:06:04;;;;;;;22.98;17.33;;;30.60;93.00;;;;;;7394417;19;20018;-91
2022/07/20 11:08:31;;;;;;;21.83;17.08;;;30.70;92.90;;;;;;7393357;19;20015;-89
2022/07/20 11:10:57;;;;;;;25.13;18.38;;;30.60;91.80;;;;;;7394549;19;20034;-90
2022/07/20 11:13:23;;;;;;;25.33;18.63;;;30.70;91.60;;;;;;7390733;19;20070;-91
2022/07/20 11:15:52;;;;;;;20.20;17.08;;;30.80;91.30;;;;;;7393900;19;20010;-88
2022/07/20 11:18:27;;;;;;;23.20;17.08;;;30.70;91.80;;;;;;7391605;19;20014;-90
2022/07/20 11:20:59;;;;;;;22.98;16.60;;;30.80;91.30;;;;;;7391398;19;20015;-90
2022/07/20 11:23:28;;;;;;;14.25;12.85;;;30.80;90.50;;;;;;7389977;19;20019;-87
2022/07/20 11:25:59;;;;;;;19.95;14.60;;;30.90;91.60;;;;;;7390950;19;20017;-88
2022/07/20 11:28:36;;;;;;;18.77;14.33;;;30.80;90.30;;;;;;7393503;19;20521;-92
2022/07/20 11:31:05;;;;;;;21.70;14.68;;;30.90;90.10;;;;;;7395327;19;20029;-89
2022/07/20 11:33:37;;;;;;;18.00;13.75;;;30.70;90.30;;;;;;7390331;19;20019;-92
2022/07/20 11:36:09;;;;;;;18.73;14.77;;;30.70;90.20;;;;;;7391697;19;20034;-89
2022/07/20 11:38:38;;;;;;;21.30;14.13;;;30.70;89.50;;;;;;7394320;19;20014;-88
2022/07/20 11:41:08;;;;;;;16.02;12.70;;;30.90;90.30;;;;;;7391736;19;20015;-87
2022/07/20 11:43:35;;;;;;;20.73;15.00;;;31.00;90.80;;;;;;7391294;19;20098;-86
2022/07/20 11:46:15;;;;;;;17.20;14.60;;;31.20;89.80;;;;;;7393068;19;20425;-92
2022/07/20 11:48:43;;;;;;;18.38;14.93;;;31.10;90.10;;;;;;7391369;19;20025;-89
2022/07/20 11:51:10;;;;;;;20.40;15.02;;;31.20;90.00;;;;;;7392945;19;20365;-86
2022/07/20 11:53:40;;;;;;;19.77;14.40;;;31.20;89.30;;;;;;7388526;19;20011;-89
2022/07/20 11:56:16;;;;;;;22.50;14.00;;;31.20;90.60;;;;;;7400579;19;20011;-86
2022/07/20 11:58:43;;;;;;;17.30;15.20;;;31.20;91.10;;;;;;7394485;19;20010;-88
2022/07/20 12:01:13;;;;;;;17.63;13.80;;;31.10;91.00;;;;;;7400046;19;20015;-89
2022/07/20 12:04:05;;;;;;;14.23;12.73;;;31.00;90.90;;;;;;7397593;19;20353;-88
2022/07/20 12:06:34;;;;;;;12.77;11.48;;;31.10;90.10;;;;;;7398704;19;20010;-89
2022/07/20 12:09:10;;;;;;;14.60;11.95;;;30.90;89.90;;;;;;7399494;19;20092;-94
2022/07/20 12:11:54;;;;;;;16.77;11.35;;;31.00;88.20;;;;;;7399165;19;20018;-91
2022/07/20 12:14:40;;;;;;;14.90;11.55;;;30.90;89.80;;;;;;7402586;19;20022;-89
2022/07/20 12:17:19;;;;;;;12.35;10.27;;;31.00;89.30;;;;;;7397887;19;20378;-88
2022/07/20 12:19:46;;;;;;;15.88;10.70;;;31.00;90.10;;;;;;7398379;19;20015;-88
2022/07/20 12:22:21;;;;;;;14.43;11.00;;;30.90;89.50;;;;;;7396830;19;20019;-88
2022/07/20 12:25:03;;;;;;;15.77;11.38;;;31.00;89.60;;;;;;7397140;19;20357;-91
2022/07/20 12:27:31;;;;;;;16.00;10.40;;;31.20;90.50;;;;;;7400723;19;20031;-90
2022/07/20 12:29:58;;;;;;;11.90;10.13;;;31.30;89.00;;;;;;7399798;19;20018;-89
2022/07/20 12:32:29;;;;;;;13.77;9.07;;;31.30;89.50;;;;;;7395700;19;20018;-92
2022/07/20 12:34:58;;;;;;;12.45;9.75;;;31.30;87.80;;;;;;7397625;19;20010;-89
2022/07/20 12:37:24;;;;;;;11.70;10.23;;;31.40;89.10;;;;;;7396948;19;20014;-89
2022/07/20 12:39:53;;;;;;;13.07;10.35;;;31.50;89.50;;;;;;7396296;19;20022;-90
2022/07/20 12:42:24;;;;;;;15.57;9.43;;;31.40;90.10;;;;;;7395520;19;20021;-90
2022/07/20 12:45:06;;;;;;;12.13;9.25;;;31.20;89.40;;;;;;7397302;19;20015;-90
2022/07/20 12:47:32;;;;;;;11.68;9.15;;;31.10;89.00;;;;;;7398600;19;20014;-89
2022/07/20 12:49:57;;;;;;;14.13;9.27;;;31.00;89.60;;;;;;7396916;19;20015;-89